createdAt,value
2019-04-29T00:04:28.652Z,99.90
2019-04-29T00:09:33.844Z,99.90
2019-04-29T00:14:41.181Z,99.90
2019-04-29T00:20:19.703Z,99.90
2019-04-29T00:25:24.078Z,99.90
2019-04-29T00:30:28.547Z,99.90
2019-04-29T00:35:35.032Z,99.90
2019-04-29T00:40:58.392Z,99.90
2019-04-29T00:46:02.217Z,99.90
2019-04-29T00:51:06.347Z,99.90
2019-04-29T00:56:10.431Z,99.90
2019-04-29T01:01:19.112Z,99.90
2019-04-29T01:06:23.137Z,99.90
2019-04-29T01:11:27.202Z,99.90
2019-04-29T01:16:31.144Z,99.90
2019-04-29T01:21:35.396Z,99.90
2019-04-29T01:26:57.324Z,99.90
2019-04-29T01:32:01.329Z,99.90
2019-04-29T01:37:05.893Z,99.90
2019-04-29T01:42:15.502Z,99.90
2019-04-29T01:47:19.771Z,99.90
2019-04-29T01:52:29.916Z,99.90
2019-04-29T01:57:34.384Z,99.90
2019-04-29T02:02:38.902Z,99.90
2019-04-29T02:07:43.203Z,99.90
2019-04-29T02:12:48.521Z,99.90
2019-04-29T02:17:55.747Z,99.90
2019-04-29T02:23:15.904Z,99.90
2019-04-29T02:28:24.386Z,99.90
2019-04-29T02:33:29.085Z,99.90
2019-04-29T02:38:58.509Z,99.90
2019-04-29T02:44:10.848Z,99.90
2019-04-29T02:49:18.278Z,99.90
2019-04-29T02:54:27.450Z,99.90
2019-04-29T02:59:44.809Z,99.90
2019-04-29T03:05:17.857Z,99.90
2019-04-29T03:10:21.762Z,99.90
2019-04-29T03:15:33.716Z,99.90
2019-04-29T03:20:54.124Z,99.90
2019-04-29T03:25:58.288Z,99.90
2019-04-29T03:31:04.471Z,99.90
2019-04-29T03:36:08.871Z,99.90
2019-04-29T03:41:13.156Z,99.90
2019-04-29T03:46:17.034Z,99.90
2019-04-29T03:51:21.065Z,99.90
2019-04-29T03:56:25.199Z,99.90
2019-04-29T04:01:37.412Z,99.90
2019-04-29T04:07:06.271Z,99.90
2019-04-29T04:12:10.213Z,99.90
2019-04-29T04:17:30.171Z,99.90
2019-04-29T04:22:49.433Z,99.90
2019-04-29T04:27:53.353Z,99.90
2019-04-29T04:33:00.482Z,99.90
2019-04-29T04:38:16.705Z,99.90
2019-04-29T04:43:28.614Z,99.90
2019-04-29T04:48:35.610Z,99.90
2019-04-29T04:53:39.624Z,99.90
2019-04-29T04:58:43.739Z,99.90
2019-04-29T05:03:47.923Z,99.90
2019-04-29T05:08:52.749Z,99.90
2019-04-29T05:13:56.598Z,99.90
2019-04-29T05:19:00.607Z,99.90
2019-04-29T05:24:09.449Z,99.90
2019-04-29T05:29:13.407Z,99.90
2019-04-29T05:34:22.091Z,99.90
2019-04-29T05:39:30.374Z,99.90
2019-04-29T05:44:46.192Z,99.90
2019-04-29T05:50:11.953Z,99.90
2019-04-29T05:55:15.294Z,99.90
2019-04-29T06:00:23.312Z,99.90
2019-04-29T06:05:26.326Z,99.90
2019-04-29T06:10:30.191Z,99.90
2019-04-29T06:15:34.728Z,99.90
2019-04-29T06:20:38.995Z,99.90
2019-04-29T06:25:46.324Z,99.90
2019-04-29T06:30:51.834Z,99.90
2019-04-29T06:35:57.116Z,99.90
2019-04-29T06:41:01.316Z,99.90
2019-04-29T06:46:05.756Z,99.90
2019-04-29T06:51:09.868Z,99.90
2019-04-29T06:56:13.799Z,99.90
2019-04-29T07:01:18.232Z,99.90
2019-04-29T07:06:24.600Z,99.90
2019-04-29T07:11:31.823Z,99.90
2019-04-29T07:16:37.928Z,99.90
2019-04-29T07:21:47.022Z,99.90
2019-04-29T07:26:53.473Z,99.90
2019-04-29T07:31:57.564Z,99.90
2019-04-29T07:37:01.559Z,99.90
2019-04-29T07:42:06.135Z,99.90
2019-04-29T07:47:09.996Z,99.90
2019-04-29T07:52:16.113Z,99.90
2019-04-29T07:57:20.118Z,99.90
2019-04-29T08:02:24.237Z,99.90
2019-04-29T08:07:28.861Z,99.90
2019-04-29T08:12:34.546Z,99.90
2019-04-29T08:17:38.540Z,99.90
2019-04-29T08:22:43.748Z,99.90
2019-04-29T08:27:47.870Z,99.90
2019-04-29T08:32:51.843Z,99.90
2019-04-29T08:37:55.700Z,99.90
2019-04-29T08:43:15.913Z,99.90
2019-04-29T08:48:20.477Z,99.90
2019-04-29T08:53:24.366Z,99.90
2019-04-29T08:58:28.123Z,99.90
2019-04-29T09:03:40.112Z,99.90
2019-04-29T09:08:53.525Z,99.90
2019-04-29T09:13:43.808Z,99.90
2019-04-29T09:18:47.945Z,99.90
2019-04-29T09:23:52.181Z,99.90
2019-04-29T09:28:59.680Z,99.90
2019-04-29T09:34:06.832Z,99.90
2019-04-29T09:39:11.035Z,99.90
2019-04-29T09:44:35.313Z,99.90
2019-04-29T09:49:39.014Z,99.90
2019-04-29T09:54:43.084Z,99.90
2019-04-29T09:59:53.042Z,99.90
2019-04-29T10:05:11.594Z,99.90
2019-04-29T10:10:15.719Z,99.90
2019-04-29T10:15:23.144Z,99.90
2019-04-29T10:20:32.416Z,99.90
2019-04-29T10:25:39.441Z,99.90
2019-04-29T10:30:44.136Z,99.90
2019-04-29T10:35:47.896Z,99.90
2019-04-29T10:41:20.243Z,99.90
2019-04-29T10:46:52.399Z,99.90
2019-04-29T10:51:58.126Z,99.90
2019-04-29T10:57:02.740Z,99.90
2019-04-29T11:02:35.023Z,99.90
2019-04-29T11:07:40.524Z,99.90
2019-04-29T11:12:44.308Z,99.90
2019-04-29T11:17:48.224Z,99.90
2019-04-29T11:23:17.897Z,99.90
2019-04-29T11:28:20.455Z,99.90
2019-04-29T11:33:35.586Z,99.90
2019-04-29T11:38:40.231Z,99.90
2019-04-29T11:43:46.606Z,99.90
2019-04-29T11:48:51.022Z,99.90
2019-04-29T11:53:54.723Z,99.90
2019-04-29T11:59:05.417Z,99.90
2019-04-29T12:04:20.915Z,99.90
2019-04-29T12:09:29.837Z,99.90
2019-04-29T12:14:48.551Z,99.90
2019-04-29T12:19:55.627Z,99.90
2019-04-29T12:24:59.351Z,99.90
2019-04-29T12:30:05.043Z,98.90
2019-04-29T12:35:23.927Z,99.80
2019-04-29T12:41:05.038Z,97.80
2019-04-29T12:46:26.538Z,99.50
2019-04-29T12:51:30.473Z,98.20
2019-04-29T12:56:43.232Z,96.70
2019-04-29T13:01:58.403Z,97.40
2019-04-29T13:07:07.541Z,95.70
2019-04-29T13:12:19.342Z,95.90
2019-04-29T13:17:35.978Z,96.00
2019-04-29T13:22:45.294Z,95.30
2019-04-29T13:27:49.017Z,94.90
2019-04-29T13:32:52.723Z,95.60
2019-04-29T13:37:56.420Z,93.50
2019-04-29T13:43:00.143Z,92.90
2019-04-29T13:48:23.372Z,89.70
2019-04-29T13:53:27.222Z,91.90
2019-04-29T13:58:31.182Z,91.80
2019-04-29T14:03:42.022Z,90.90
2019-04-29T14:08:45.133Z,90.20
2019-04-29T14:13:49.035Z,89.50
2019-04-29T14:18:52.727Z,90.80
2019-04-29T14:23:56.683Z,90.30
2019-04-29T14:29:00.470Z,90.60
2019-04-29T14:34:09.930Z,89.10
2019-04-29T14:39:18.917Z,88.00
2019-04-29T14:44:41.498Z,87.20
2019-04-29T14:49:55.018Z,90.10
2019-04-29T14:54:59.462Z,88.50
2019-04-29T15:00:04.143Z,87.50
2019-04-29T15:05:12.285Z,85.40
2019-04-29T15:10:14.333Z,82.40
2019-04-29T15:15:43.449Z,84.40
2019-04-29T15:20:56.527Z,82.40
2019-04-29T15:26:00.623Z,81.80
2019-04-29T15:31:08.071Z,79.20
2019-04-29T15:36:09.891Z,79.40
2019-04-29T15:41:13.913Z,78.20
2019-04-29T15:46:18.052Z,80.10
2019-04-29T15:51:21.967Z,74.70
2019-04-29T15:56:28.650Z,75.20
2019-04-29T16:01:31.463Z,75.50
2019-04-29T16:06:53.480Z,75.50
2019-04-29T16:12:14.155Z,78.20
2019-04-29T16:17:12.190Z,77.50
2019-04-29T16:22:19.783Z,78.30
2019-04-29T16:27:21.639Z,79.50
2019-04-29T16:32:33.147Z,79.00
2019-04-29T16:37:37.228Z,77.40
2019-04-29T16:42:56.884Z,75.40
2019-04-29T16:48:00.762Z,72.90
2019-04-29T16:53:04.603Z,72.80
2019-04-29T16:58:17.366Z,72.70
2019-04-29T17:03:15.061Z,73.70
2019-04-29T17:08:21.127Z,73.30
2019-04-29T17:13:25.402Z,72.20
2019-04-29T17:18:30.131Z,73.50
2019-04-29T17:23:34.039Z,74.00
2019-04-29T17:28:47.667Z,76.50
2019-04-29T17:34:06.378Z,76.30
2019-04-29T17:39:10.670Z,76.80
2019-04-29T17:44:40.918Z,77.50
2019-04-29T17:50:06.749Z,78.40
2019-04-29T17:55:38.818Z,79.30
2019-04-29T18:00:59.433Z,80.40
2019-04-29T18:06:09.061Z,81.00
2019-04-29T18:11:14.919Z,82.50
2019-04-29T18:16:25.920Z,84.90
2019-04-29T18:21:43.314Z,85.30
2019-04-29T18:27:00.370Z,86.20
2019-04-29T18:32:07.725Z,88.60
2019-04-29T18:37:09.990Z,89.70
2019-04-29T18:42:13.855Z,89.60
2019-04-29T18:47:22.472Z,90.20
2019-04-29T18:52:26.518Z,90.30
2019-04-29T18:57:30.889Z,90.80
2019-04-29T19:02:45.023Z,90.60
2019-04-29T19:07:40.654Z,91.00
2019-04-29T19:12:45.917Z,91.20
2019-04-29T19:17:59.158Z,91.40
2019-04-29T19:23:05.901Z,91.80
2019-04-29T19:28:11.740Z,92.20
2019-04-29T19:33:09.033Z,92.70
2019-04-29T19:38:14.044Z,93.10
2019-04-29T19:43:19.048Z,93.60
2019-04-29T19:48:26.987Z,93.80
2019-04-29T19:53:28.551Z,94.30
2019-04-29T19:58:32.884Z,94.70
2019-04-29T20:03:49.310Z,95.10
2019-04-29T20:08:54.874Z,95.70
2019-04-29T20:14:04.318Z,96.10
2019-04-29T20:19:18.079Z,96.60
2019-04-29T20:24:23.434Z,97.20
2019-04-29T20:29:27.108Z,97.50
2019-04-29T20:34:30.356Z,97.80
2019-04-29T20:39:35.626Z,98.30
2019-04-29T20:44:44.536Z,98.70
2019-04-29T20:49:45.938Z,98.90
2019-04-29T20:54:57.493Z,98.90
2019-04-29T20:59:56.338Z,99.40
2019-04-29T21:05:00.432Z,99.80
2019-04-29T21:10:08.452Z,99.80
2019-04-29T21:15:16.469Z,99.90
2019-04-29T21:20:21.659Z,99.90
2019-04-29T21:25:29.516Z,99.90
2019-04-29T21:30:35.514Z,99.90
2019-04-29T21:35:45.334Z,99.90
2019-04-29T21:40:55.914Z,99.90
2019-04-29T21:45:59.889Z,99.90
2019-04-29T21:51:06.835Z,99.90
2019-04-29T21:56:10.126Z,99.90
2019-04-29T22:01:15.308Z,99.90
2019-04-29T22:06:19.643Z,99.90
2019-04-29T22:11:23.445Z,99.90
2019-04-29T22:16:27.729Z,99.90
2019-04-29T22:21:31.890Z,99.90
2019-04-29T22:26:35.864Z,99.90
2019-04-29T22:31:39.566Z,99.90
2019-04-29T22:36:43.394Z,99.90
2019-04-29T22:42:08.527Z,99.90
2019-04-29T22:47:12.347Z,99.90
2019-04-29T22:52:16.106Z,99.90
2019-04-29T22:57:22.974Z,99.90
2019-04-29T23:02:28.427Z,99.90
2019-04-29T23:07:31.047Z,99.90
2019-04-29T23:12:35.041Z,99.90
2019-04-29T23:17:42.618Z,99.90
2019-04-29T23:22:56.820Z,99.90
2019-04-29T23:27:58.950Z,99.90
2019-04-29T23:33:02.658Z,99.90
2019-04-29T23:38:09.294Z,99.90
2019-04-29T23:43:12.139Z,99.90
2019-04-29T23:48:19.884Z,99.90
2019-04-29T23:53:25.256Z,99.90
2019-04-29T23:58:37.286Z,99.90
